Jamestown Regional Airport
KJMS : now visible

Airfield :











YOU CAN JOIN US ON...

 
LOGIN :

Register | Disclaimer

   EN    FR    IT 

 









Legend :    VFR   Marginal VFR   IFR   Intensive IFR   Very Intensive IFR
Visi :
Ceiling :
>= 8 km
>= 3000ft
5 to 8 km
1000 to 3000 ft
1500m to 5 km
500 to 1000 ft
800 to 1500m
200 to 500 ft
< 800m
< 200 ft
Symbols :   Thunderstorms  Fog  Heavy snow  Heavy precipitations  Wind > 20 kt






- Airport Elevation : 1500 ft
- IATA code : JMS


KJMS - Jamestown Regional

CURRENT METAR :
  • 181156Z AUTO 31023G38KT 1/2SM -SN FZFG VV010 M18/M19 A2998 RMK AO2 PK WND 31045/1123 SLP184 P0000 60000 70011 T11781189 11156 21178 53013 $

EXPIRED METARs :
  • 181123Z AUTO 31032G45KT 1/4SM -SN FZFG VV011 M17/M19 A2997 RMK AO2 PK WND 31045/1123 P0000 T11721189 $
  • 181109Z AUTO 31031G41KT 1/2SM SN FZFG VV012 M17/M19 A2997 RMK AO2 PK WND 31041/1109 P0000 T11721189 $
  • 181056Z AUTO 31028G43KT 1/4SM SN FZFG VV012 M17/M19 A2996 RMK AO2 PK WND 31043/0958 SLP178 P0000 T11721189 $
  • 181033Z AUTO 31033G42KT 1/4SM SN FZFG VV014 M17/M18 A2996 RMK AO2 PK WND 31043/0958 P0000 T11721183 $
  • 180956Z AUTO 31030G39KT 1/4SM SN FZFG VV011 M17/M18 A2994 RMK AO2 PK WND 31043/0924 SLP172 P0000 T11671183 $
  • 180932Z AUTO 32028G43KT 1/4SM SN FZFG VV012 M17/M18 A2995 RMK AO2 PK WND 31043/0924 P0000 T11721183 $

TAF KJMS
Valid from the 18 at 12:00 until the 19 at 12:00 UTC


181151Z 1812/1912 31032G43KT 1/4SM BLSN VCSH VV010
TEMPO 1812/1816 1/2SM BLSN
FM181600 31031G42KT 1SM BLSN BKN035
FM181900 30030G40KT 3SM BLSN SCT035
FM190200 31021G30KT P6SM FEW050
FM191100 31014G23KT P6SM FEW120



MET'MAP, your aeronautical weather chart ! - Copyright ORBIFLY December 2007 - Disclaimer

ORBIFLY MET'MAP TEAM :

Programming & Development : Alexandra Zaïnal
Concept & original design : Baudouin d'Aumeries
Assistance for programming : Marc-Olivier Méhu
Technical & hardware support : Manuel Goepfert

Contact : metmap@orbifly.com




SOURCES & CREDITS :

   NOAA       Earth
Advisory